createdAt,value
2023-03-12T00:02:00.647Z,26.93
2023-03-12T00:04:28.036Z,15.63
2023-03-12T00:06:54.811Z,21.87
2023-03-12T00:09:21.549Z,18.57
2023-03-12T00:11:48.343Z,22.73
2023-03-12T00:14:15.440Z,8.20
2023-03-12T00:16:42.251Z,5.83
2023-03-12T00:19:12.641Z,9.77
2023-03-12T00:21:39.741Z,6.70
2023-03-12T00:24:08.099Z,6.77
2023-03-12T00:26:34.932Z,5.10
2023-03-12T00:29:01.634Z,4.90
2023-03-12T00:31:31.763Z,5.57
2023-03-12T00:33:59.467Z,8.83
2023-03-12T00:36:29.493Z,4.40
2023-03-12T00:38:57.568Z,4.87
2023-03-12T00:41:25.083Z,7.50
2023-03-12T00:43:53.044Z,6.80
2023-03-12T00:46:20.544Z,5.40
2023-03-12T00:48:47.366Z,9.23
2023-03-12T00:51:14.307Z,8.03
2023-03-12T00:53:41.005Z,7.33
2023-03-12T00:56:08.003Z,5.90
2023-03-12T00:58:34.700Z,6.00
2023-03-12T01:01:01.629Z,5.67
2023-03-12T01:03:28.354Z,5.37
2023-03-12T01:05:55.337Z,6.03
2023-03-12T01:08:23.101Z,7.17
2023-03-12T01:10:50.233Z,5.90
2023-03-12T01:13:17.464Z,5.93
2023-03-12T01:15:44.244Z,3.07
2023-03-12T01:18:11.543Z,7.67
2023-03-12T01:20:40.342Z,6.47
2023-03-12T01:23:07.796Z,7.47
2023-03-12T01:25:36.440Z,8.43
2023-03-12T01:28:03.622Z,6.37
2023-03-12T01:30:30.964Z,6.57
2023-03-12T01:32:58.168Z,8.33
2023-03-12T01:35:25.178Z,3.80
2023-03-12T01:37:53.080Z,6.67
2023-03-12T01:40:25.381Z,6.47
2023-03-12T01:42:58.634Z,5.40
2023-03-12T01:46:03.295Z,3.30
2023-03-12T01:48:35.562Z,3.20
2023-03-12T01:51:03.149Z,3.40
2023-03-12T01:53:30.762Z,3.70
2023-03-12T01:56:00.365Z,5.67
2023-03-12T01:58:29.593Z,3.27
2023-03-12T02:00:56.423Z,6.90
2023-03-12T02:03:23.260Z,4.83
2023-03-12T02:06:04.673Z,5.57
2023-03-12T02:08:31.409Z,4.10
2023-03-12T02:10:58.154Z,5.47
2023-03-12T02:13:25.028Z,4.07
2023-03-12T02:15:51.884Z,4.47
2023-03-12T02:18:20.001Z,5.40
2023-03-12T02:21:15.797Z,4.70
2023-03-12T02:24:03.902Z,4.33
2023-03-12T02:26:31.646Z,3.70
2023-03-12T02:29:00.587Z,7.57
2023-03-12T02:31:33.069Z,5.60
2023-03-12T02:34:00.638Z,5.33
2023-03-12T02:36:27.978Z,6.77
2023-03-12T02:38:55.848Z,4.97
2023-03-12T02:41:30.933Z,5.97
2023-03-12T02:44:04.188Z,3.77
2023-03-12T02:46:36.602Z,5.10
2023-03-12T02:49:03.993Z,8.20
2023-03-12T02:51:30.804Z,8.77
2023-03-12T02:53:57.626Z,5.43
2023-03-12T02:56:27.271Z,3.53
2023-03-12T02:58:54.277Z,4.50
2023-03-12T03:01:21.185Z,3.50
2023-03-12T03:03:48.513Z,9.20
2023-03-12T03:06:15.936Z,4.53
2023-03-12T03:08:43.355Z,3.87
2023-03-12T03:11:10.571Z,4.27
2023-03-12T03:13:37.328Z,5.50
2023-03-12T03:16:04.426Z,6.23
2023-03-12T03:18:32.570Z,4.17
2023-03-12T03:21:02.156Z,7.53
2023-03-12T03:23:28.966Z,5.33
2023-03-12T03:25:55.941Z,5.33
2023-03-12T03:28:24.192Z,5.73
2023-03-12T03:30:55.187Z,6.50
2023-03-12T03:33:21.936Z,7.10
2023-03-12T03:35:49.153Z,5.93
2023-03-12T03:38:16.299Z,7.03
2023-03-12T03:40:43.692Z,4.87
2023-03-12T03:43:10.426Z,5.10
2023-03-12T03:45:37.150Z,5.67
2023-03-12T03:48:04.027Z,5.40
2023-03-12T03:50:31.468Z,7.47
2023-03-12T03:52:58.269Z,5.80
2023-03-12T03:55:25.756Z,6.33
2023-03-12T03:57:52.470Z,8.10
2023-03-12T04:00:19.601Z,7.80
2023-03-12T04:02:46.266Z,8.10
2023-03-12T04:05:13.230Z,9.40
2023-03-12T04:07:40.035Z,10.27
2023-03-12T04:10:07.721Z,6.83
2023-03-12T04:12:34.488Z,10.30
2023-03-12T04:15:01.276Z,8.97
2023-03-12T04:17:28.153Z,7.03
2023-03-12T04:19:54.881Z,7.10
2023-03-12T04:22:21.700Z,8.70
2023-03-12T04:24:48.551Z,7.93
2023-03-12T04:27:15.407Z,14.30
2023-03-12T04:29:42.213Z,9.27
2023-03-12T04:32:08.930Z,9.37
2023-03-12T04:34:35.681Z,10.13
2023-03-12T04:37:02.963Z,10.17
2023-03-12T04:39:29.757Z,10.10
2023-03-12T04:41:56.482Z,10.13
2023-03-12T04:44:23.306Z,10.10
2023-03-12T04:46:50.200Z,13.27
2023-03-12T04:49:17.040Z,10.57
2023-03-12T04:51:43.797Z,12.73
2023-03-12T04:54:10.509Z,12.97
2023-03-12T04:56:37.236Z,11.23
2023-03-12T04:59:04.942Z,11.83
2023-03-12T05:01:34.004Z,13.07
2023-03-12T05:04:02.243Z,12.57
2023-03-12T05:06:29.384Z,12.97
2023-03-12T05:08:58.164Z,15.03
2023-03-12T05:11:25.902Z,13.73
2023-03-12T05:13:52.743Z,14.00
2023-03-12T05:16:19.769Z,18.07
2023-03-12T05:18:47.293Z,14.60
2023-03-12T05:21:19.210Z,19.33
2023-03-12T05:23:46.668Z,16.73
2023-03-12T05:26:23.458Z,17.10
2023-03-12T05:28:50.239Z,20.03
2023-03-12T05:31:18.055Z,21.60
2023-03-12T05:33:46.022Z,18.90
2023-03-12T05:36:13.614Z,16.07
2023-03-12T05:38:41.887Z,17.50
2023-03-12T05:41:16.818Z,20.67
2023-03-12T05:43:43.576Z,17.27
2023-03-12T05:46:10.751Z,19.73
2023-03-12T05:48:37.522Z,19.90
2023-03-12T05:51:04.496Z,21.90
2023-03-12T05:53:31.370Z,21.10
2023-03-12T05:56:07.259Z,21.47
2023-03-12T05:58:35.885Z,22.70
2023-03-12T06:01:02.867Z,20.73
2023-03-12T06:03:29.708Z,23.43
2023-03-12T06:05:57.083Z,19.77
2023-03-12T06:08:24.790Z,21.03
2023-03-12T06:10:53.987Z,20.73
2023-03-12T06:13:22.448Z,17.17
2023-03-12T06:15:50.010Z,17.47
2023-03-12T06:18:16.798Z,18.03
2023-03-12T06:20:43.618Z,18.40
2023-03-12T06:23:10.396Z,15.23
2023-03-12T06:25:37.602Z,15.70
2023-03-12T06:28:04.471Z,16.00
2023-03-12T06:30:31.999Z,16.83
2023-03-12T06:32:58.748Z,14.20
2023-03-12T06:35:25.507Z,14.20
2023-03-12T06:37:53.475Z,14.80
2023-03-12T06:40:20.574Z,16.57
2023-03-12T06:42:47.497Z,14.40
2023-03-12T06:45:14.180Z,18.77
2023-03-12T06:47:41.107Z,15.87
2023-03-12T06:50:08.432Z,13.87
2023-03-12T06:52:35.105Z,14.47
2023-03-12T06:55:01.934Z,13.43
2023-03-12T06:57:28.702Z,13.33
2023-03-12T06:59:55.438Z,12.60
2023-03-12T07:02:22.280Z,12.63
2023-03-12T07:04:49.290Z,12.27
2023-03-12T07:07:17.079Z,9.77
2023-03-12T07:09:43.859Z,12.57
2023-03-12T07:12:10.624Z,11.17
2023-03-12T07:14:37.394Z,10.50
2023-03-12T07:17:04.265Z,15.40
2023-03-12T07:19:31.099Z,11.97
2023-03-12T07:21:58.089Z,11.63
2023-03-12T07:24:24.955Z,10.90
2023-03-12T07:26:51.755Z,7.37
2023-03-12T07:29:18.632Z,6.17
2023-03-12T07:31:45.679Z,5.90
2023-03-12T07:34:12.722Z,5.40
2023-03-12T07:36:39.773Z,6.97
2023-03-12T07:39:06.756Z,6.43
2023-03-12T07:41:35.273Z,6.60
2023-03-12T07:44:02.285Z,5.80
2023-03-12T07:46:29.270Z,5.90
2023-03-12T07:48:56.312Z,6.80
2023-03-12T07:51:23.202Z,6.17
2023-03-12T07:53:58.005Z,6.13
2023-03-12T07:56:24.987Z,5.60
2023-03-12T07:58:52.789Z,6.90
2023-03-12T08:01:19.763Z,6.80
2023-03-12T08:03:46.709Z,5.73
2023-03-12T08:06:13.826Z,5.40
2023-03-12T08:08:42.406Z,5.43
2023-03-12T08:11:09.864Z,4.90
2023-03-12T08:13:36.734Z,4.30
2023-03-12T08:16:04.165Z,4.60
2023-03-12T08:18:30.948Z,5.00
2023-03-12T08:20:57.801Z,3.70
2023-03-12T08:23:27.960Z,3.50
2023-03-12T08:25:55.437Z,3.57
2023-03-12T08:28:23.722Z,4.40
2023-03-12T08:30:53.495Z,3.30
2023-03-12T08:33:21.500Z,3.20
2023-03-12T08:35:49.502Z,2.60
2023-03-12T08:38:17.788Z,2.10
2023-03-12T08:40:44.889Z,2.87
2023-03-12T08:43:11.852Z,2.37
2023-03-12T08:45:39.004Z,3.40
2023-03-12T08:48:07.094Z,2.00
2023-03-12T08:50:34.094Z,2.03
2023-03-12T08:53:00.832Z,1.67
2023-03-12T08:55:30.650Z,1.80
2023-03-12T08:57:57.509Z,2.13
2023-03-12T09:00:25.052Z,1.37
2023-03-12T09:02:53.543Z,0.80
2023-03-12T09:05:20.854Z,1.27
2023-03-12T09:07:47.680Z,1.53
2023-03-12T09:10:14.478Z,1.00
2023-03-12T09:12:41.295Z,5.87
2023-03-12T09:15:12.439Z,2.97
2023-03-12T09:17:39.573Z,2.50
2023-03-12T09:20:08.828Z,3.43
2023-03-12T09:22:37.413Z,1.30
2023-03-12T09:25:05.829Z,3.50
2023-03-12T09:27:37.271Z,2.47
2023-03-12T09:30:05.583Z,3.07
2023-03-12T09:32:32.340Z,3.73
2023-03-12T09:34:59.333Z,2.20
2023-03-12T09:37:26.369Z,4.00
2023-03-12T09:39:53.950Z,3.23
2023-03-12T09:42:25.751Z,6.53
2023-03-12T09:44:55.021Z,3.83
2023-03-12T09:47:31.823Z,4.80
2023-03-12T09:50:21.632Z,3.07
2023-03-12T09:53:03.232Z,4.00
2023-03-12T09:55:38.935Z,1.23
2023-03-12T09:58:21.069Z,4.10
2023-03-12T10:00:48.190Z,3.93
2023-03-12T10:03:26.878Z,4.07
2023-03-12T10:06:06.597Z,5.50
2023-03-12T10:08:38.872Z,1.70
2023-03-12T10:11:08.490Z,4.80
2023-03-12T10:13:52.580Z,4.70
2023-03-12T10:16:26.084Z,5.27
2023-03-12T10:19:11.373Z,1.50
2023-03-12T10:21:44.866Z,3.57
2023-03-12T10:24:31.584Z,3.17
2023-03-12T10:26:59.613Z,3.23
2023-03-12T10:29:37.455Z,2.97
2023-03-12T10:32:16.734Z,1.87
2023-03-12T10:34:47.829Z,7.37
2023-03-12T10:37:18.250Z,4.80
2023-03-12T10:39:46.036Z,11.13
2023-03-12T10:42:17.249Z,6.63
2023-03-12T10:44:45.258Z,12.57
2023-03-12T10:47:40.319Z,10.40
2023-03-12T10:50:17.053Z,18.37
2023-03-12T10:52:45.634Z,9.80
2023-03-12T10:55:24.411Z,3.20
2023-03-12T10:57:51.463Z,1.87
2023-03-12T11:00:22.069Z,4.77
2023-03-12T11:02:58.699Z,2.60
2023-03-12T11:05:32.085Z,5.20
2023-03-12T11:08:02.620Z,0.77
2023-03-12T11:10:46.922Z,0.73
2023-03-12T11:13:32.631Z,3.17
2023-03-12T11:16:17.908Z,5.40
2023-03-12T11:18:56.386Z,9.07
2023-03-12T11:21:23.794Z,5.73
2023-03-12T11:23:59.436Z,9.73
2023-03-12T11:26:53.751Z,7.97
2023-03-12T11:29:31.474Z,9.00
2023-03-12T11:32:05.156Z,5.13
2023-03-12T11:34:35.449Z,6.87
2023-03-12T11:37:50.491Z,2.40
2023-03-12T11:40:54.988Z,6.07
2023-03-12T11:43:44.292Z,1.33
2023-03-12T11:46:26.784Z,4.13
2023-03-12T11:49:31.607Z,5.50
2023-03-12T11:52:43.140Z,2.43
2023-03-12T11:55:21.917Z,2.10
2023-03-12T11:58:08.781Z,4.47
2023-03-12T12:00:49.950Z,2.83
2023-03-12T12:03:51.942Z,1.10
2023-03-12T12:06:24.818Z,1.77
2023-03-12T12:09:19.343Z,3.83
2023-03-12T12:12:08.293Z,2.77
2023-03-12T12:15:00.471Z,7.23
2023-03-12T12:18:00.204Z,4.73
2023-03-12T12:20:42.981Z,5.87
2023-03-12T12:23:17.931Z,2.10
2023-03-12T12:26:00.257Z,2.77
2023-03-12T12:28:45.724Z,3.70
2023-03-12T12:31:28.498Z,2.97
2023-03-12T12:34:14.253Z,3.50
2023-03-12T12:36:48.588Z,3.20
2023-03-12T12:39:34.076Z,2.50
2023-03-12T12:42:06.152Z,2.23
2023-03-12T12:44:48.636Z,2.90
2023-03-12T12:47:20.215Z,4.47
2023-03-12T12:49:50.995Z,2.73
2023-03-12T12:52:21.999Z,1.83
2023-03-12T12:54:51.425Z,2.77
2023-03-12T12:57:24.266Z,1.70
2023-03-12T13:00:21.964Z,4.07
2023-03-12T13:02:50.402Z,2.53
2023-03-12T13:05:28.545Z,2.63
2023-03-12T13:07:55.680Z,1.27
2023-03-12T13:10:34.454Z,2.67
2023-03-12T13:13:10.321Z,4.67
2023-03-12T13:15:43.737Z,2.90
2023-03-12T13:18:28.565Z,3.50
2023-03-12T13:20:55.370Z,3.93
2023-03-12T13:23:25.315Z,2.97
2023-03-12T13:26:20.408Z,3.53
2023-03-12T13:28:56.837Z,2.87
2023-03-12T13:31:29.728Z,4.10
2023-03-12T13:34:08.934Z,2.53
2023-03-12T13:36:38.935Z,2.57
2023-03-12T13:39:08.673Z,2.73
2023-03-12T13:41:41.279Z,4.87
2023-03-12T13:44:31.369Z,3.20
2023-03-12T13:47:25.654Z,3.03
2023-03-12T13:49:57.716Z,3.13
2023-03-12T13:52:27.023Z,3.30
2023-03-12T13:55:02.931Z,4.43
2023-03-12T13:57:46.837Z,2.70
2023-03-12T14:00:20.649Z,3.73
2023-03-12T14:03:13.582Z,3.67
2023-03-12T14:06:09.922Z,5.80
2023-03-12T14:09:10.492Z,2.50
2023-03-12T14:11:49.482Z,2.97
2023-03-12T14:14:44.163Z,3.63
2023-03-12T14:17:20.374Z,1.70
2023-03-12T14:19:51.435Z,1.60
2023-03-12T14:22:22.793Z,3.97
2023-03-12T14:25:05.019Z,2.60
2023-03-12T14:27:33.727Z,5.83
2023-03-12T14:30:25.706Z,4.07
2023-03-12T14:33:01.234Z,1.30
2023-03-12T14:35:38.798Z,3.40
2023-03-12T14:38:07.223Z,4.17
2023-03-12T14:40:46.186Z,2.77
2023-03-12T14:43:22.269Z,2.80
2023-03-12T14:45:58.562Z,2.47
2023-03-12T14:48:35.747Z,2.63
2023-03-12T14:51:06.535Z,4.60
2023-03-12T14:53:35.893Z,2.60
2023-03-12T14:56:32.992Z,2.30
2023-03-12T14:59:19.273Z,4.83
2023-03-12T15:01:46.845Z,1.90
2023-03-12T15:04:18.602Z,3.53
2023-03-12T15:06:49.097Z,5.03
2023-03-12T15:09:25.745Z,4.73
2023-03-12T15:11:57.660Z,4.17
2023-03-12T15:14:26.557Z,4.57
2023-03-12T15:16:53.967Z,4.83
2023-03-12T15:19:27.422Z,1.90
2023-03-12T15:21:54.705Z,2.23
2023-03-12T15:24:21.706Z,5.17
2023-03-12T15:26:48.414Z,3.70
2023-03-12T15:29:28.885Z,5.47
2023-03-12T15:32:00.377Z,4.10
2023-03-12T15:34:36.551Z,2.30
2023-03-12T15:37:33.908Z,3.90
2023-03-12T15:40:06.257Z,3.30
2023-03-12T15:42:40.076Z,4.50
2023-03-12T15:45:21.328Z,2.27
2023-03-12T15:47:49.531Z,2.60
2023-03-12T15:50:23.753Z,3.73
2023-03-12T15:53:01.197Z,6.17
2023-03-12T15:55:30.573Z,4.47
2023-03-12T15:57:59.080Z,3.07
2023-03-12T16:00:29.267Z,4.20
2023-03-12T16:03:06.081Z,4.60
2023-03-12T16:05:36.180Z,5.27
2023-03-12T16:08:14.086Z,5.23
2023-03-12T16:10:40.880Z,12.70
2023-03-12T16:13:13.828Z,4.93
2023-03-12T16:15:40.798Z,3.17
2023-03-12T16:18:16.672Z,5.23
2023-03-12T16:20:44.794Z,3.17
2023-03-12T16:23:12.310Z,5.60
2023-03-12T16:25:41.722Z,3.90
2023-03-12T16:28:13.529Z,4.03
2023-03-12T16:30:41.045Z,2.73
2023-03-12T16:33:09.378Z,2.90
2023-03-12T16:35:36.518Z,4.47
2023-03-12T16:38:03.640Z,4.90
2023-03-12T16:40:36.057Z,4.90
2023-03-12T16:43:06.676Z,5.37
2023-03-12T16:45:36.628Z,7.20
2023-03-12T16:48:06.422Z,8.57
2023-03-12T16:50:33.381Z,7.67
2023-03-12T16:53:02.463Z,5.33
2023-03-12T16:55:32.371Z,6.83
2023-03-12T16:58:01.481Z,6.67
2023-03-12T17:00:32.604Z,7.23
2023-03-12T17:03:00.645Z,5.00
2023-03-12T17:05:29.477Z,6.60
2023-03-12T17:07:57.124Z,5.87
2023-03-12T17:10:24.802Z,4.83
2023-03-12T17:12:52.899Z,8.03
2023-03-12T17:15:27.076Z,10.10
2023-03-12T17:17:55.734Z,8.43
2023-03-12T17:20:24.266Z,6.87
2023-03-12T17:22:51.167Z,5.87
2023-03-12T17:25:26.586Z,6.47
2023-03-12T17:27:53.991Z,6.67
2023-03-12T17:30:22.003Z,7.17
2023-03-12T17:32:50.219Z,6.37
2023-03-12T17:35:18.894Z,5.27
2023-03-12T17:37:48.319Z,8.83
2023-03-12T17:40:15.735Z,6.50
2023-03-12T17:42:42.576Z,8.10
2023-03-12T17:45:10.508Z,5.87
2023-03-12T17:47:37.633Z,12.60
2023-03-12T17:50:05.631Z,13.83
2023-03-12T17:52:33.086Z,7.30
2023-03-12T17:55:00.718Z,5.03
2023-03-12T17:57:28.206Z,9.63
2023-03-12T17:59:55.232Z,5.57
2023-03-12T18:02:22.570Z,5.83
2023-03-12T18:04:49.363Z,4.53
2023-03-12T18:07:16.263Z,9.27
2023-03-12T18:09:43.318Z,9.83
2023-03-12T18:12:11.201Z,9.87
2023-03-12T18:14:38.493Z,5.53
2023-03-12T18:17:05.404Z,9.63
2023-03-12T18:19:34.109Z,8.83
2023-03-12T18:22:02.172Z,10.43
2023-03-12T18:24:29.234Z,6.97
2023-03-12T18:26:56.303Z,6.30
2023-03-12T18:29:23.434Z,8.40
2023-03-12T18:31:50.177Z,8.87
2023-03-12T18:34:17.045Z,8.43
2023-03-12T18:36:43.767Z,8.33
2023-03-12T18:39:10.615Z,8.80
2023-03-12T18:41:39.431Z,5.17
2023-03-12T18:44:07.592Z,6.43
2023-03-12T18:46:34.625Z,6.33
2023-03-12T18:49:08.948Z,10.30
2023-03-12T18:51:36.099Z,7.60
2023-03-12T18:54:03.005Z,10.37
2023-03-12T18:56:29.869Z,5.80
2023-03-12T18:58:56.726Z,7.60
2023-03-12T19:01:23.488Z,7.30
2023-03-12T19:03:50.348Z,7.77
2023-03-12T19:06:17.728Z,7.90
2023-03-12T19:08:44.759Z,7.87
2023-03-12T19:11:13.845Z,6.50
2023-03-12T19:13:40.877Z,7.00
2023-03-12T19:16:09.586Z,6.30
2023-03-12T19:18:37.958Z,4.20
2023-03-12T19:21:07.255Z,8.70
2023-03-12T19:23:34.025Z,7.70
2023-03-12T19:26:00.830Z,7.60
2023-03-12T19:28:27.840Z,8.80
2023-03-12T19:31:02.623Z,8.87
2023-03-12T19:33:30.022Z,7.37
2023-03-12T19:35:57.479Z,8.27
2023-03-12T19:38:24.342Z,8.67
2023-03-12T19:40:56.243Z,12.00
2023-03-12T19:43:23.812Z,7.50
2023-03-12T19:45:50.676Z,10.97
2023-03-12T19:48:17.473Z,8.53
2023-03-12T19:50:47.592Z,6.53
2023-03-12T19:53:14.421Z,11.03
2023-03-12T19:55:41.092Z,9.70
2023-03-12T19:58:08.453Z,8.50
2023-03-12T20:00:35.221Z,10.43
2023-03-12T20:03:02.147Z,9.37
2023-03-12T20:05:28.978Z,12.97
2023-03-12T20:07:56.818Z,12.17
2023-03-12T20:10:23.657Z,15.23
2023-03-12T20:12:50.359Z,12.53
2023-03-12T20:15:17.232Z,9.57
2023-03-12T20:17:44.159Z,8.20
2023-03-12T20:20:11.528Z,10.80
2023-03-12T20:22:38.354Z,8.13
2023-03-12T20:25:06.154Z,8.07
2023-03-12T20:27:34.216Z,7.47
2023-03-12T20:30:00.990Z,9.93
2023-03-12T20:32:28.685Z,8.87
2023-03-12T20:34:55.452Z,14.50
2023-03-12T20:37:22.181Z,9.43
2023-03-12T20:39:49.007Z,7.00
2023-03-12T20:42:15.806Z,7.93
2023-03-12T20:44:42.635Z,9.80
2023-03-12T20:47:09.423Z,6.60
2023-03-12T20:49:36.212Z,10.77
2023-03-12T20:52:03.452Z,12.77
2023-03-12T20:54:30.345Z,11.00
2023-03-12T20:56:57.178Z,10.27
2023-03-12T20:59:24.107Z,14.83
2023-03-12T21:01:50.860Z,11.30
2023-03-12T21:04:17.632Z,11.80
2023-03-12T21:06:45.019Z,12.90
2023-03-12T21:09:11.738Z,11.30
2023-03-12T21:11:40.075Z,11.00
2023-03-12T21:14:06.800Z,11.50
2023-03-12T21:16:33.764Z,14.83
2023-03-12T21:19:00.539Z,13.40
2023-03-12T21:21:27.281Z,8.37
2023-03-12T21:23:54.148Z,12.70
2023-03-12T21:26:21.882Z,15.37
2023-03-12T21:28:48.724Z,14.27
2023-03-12T21:31:16.887Z,14.00
2023-03-12T21:33:43.886Z,16.03
2023-03-12T21:36:12.944Z,9.97
2023-03-12T21:38:42.656Z,11.53
2023-03-12T21:41:14.692Z,9.40
2023-03-12T21:43:42.301Z,10.03
2023-03-12T21:46:14.922Z,11.47
2023-03-12T21:48:44.798Z,13.50
2023-03-12T21:51:13.333Z,11.17
2023-03-12T21:53:40.223Z,10.33
2023-03-12T21:56:08.315Z,16.23
2023-03-12T21:58:35.806Z,9.40
2023-03-12T22:01:07.201Z,6.53
2023-03-12T22:03:34.512Z,5.53
2023-03-12T22:06:01.280Z,18.87
2023-03-12T22:08:28.096Z,9.20
2023-03-12T22:10:54.885Z,8.13
2023-03-12T22:13:21.717Z,10.47
2023-03-12T22:15:55.125Z,10.27
2023-03-12T22:18:22.840Z,9.13
2023-03-12T22:20:53.156Z,12.13
2023-03-12T22:23:20.408Z,8.27
2023-03-12T22:25:47.285Z,8.90
2023-03-12T22:28:14.948Z,8.03
2023-03-12T22:30:41.932Z,5.67
2023-03-12T22:33:09.441Z,6.50
2023-03-12T22:35:46.404Z,6.33
2023-03-12T22:38:13.709Z,10.67
2023-03-12T22:40:41.192Z,5.13
2023-03-12T22:43:08.081Z,7.10
2023-03-12T22:45:35.524Z,3.43
2023-03-12T22:48:02.337Z,4.90
2023-03-12T22:50:29.808Z,3.87
2023-03-12T22:52:56.706Z,7.97
2023-03-12T22:55:23.484Z,4.33
2023-03-12T22:57:50.229Z,6.10
2023-03-12T23:00:22.653Z,4.43
2023-03-12T23:02:50.371Z,7.37
2023-03-12T23:05:17.209Z,7.63
2023-03-12T23:07:44.216Z,3.97
2023-03-12T23:10:11.453Z,4.63
2023-03-12T23:12:38.187Z,8.40
2023-03-12T23:15:05.733Z,4.97
2023-03-12T23:17:32.470Z,4.77
2023-03-12T23:19:59.174Z,7.60
2023-03-12T23:22:25.926Z,6.83
2023-03-12T23:24:53.264Z,9.37
2023-03-12T23:27:20.398Z,6.00
2023-03-12T23:29:47.327Z,6.20
2023-03-12T23:32:14.077Z,4.30
2023-03-12T23:34:40.774Z,5.20
2023-03-12T23:37:07.521Z,2.90
2023-03-12T23:39:45.038Z,5.97
2023-03-12T23:42:18.731Z,4.33
2023-03-12T23:44:46.323Z,4.77
2023-03-12T23:47:13.175Z,5.53
2023-03-12T23:49:39.870Z,9.07
2023-03-12T23:52:06.742Z,3.33
2023-03-12T23:54:33.469Z,5.20
2023-03-12T23:57:00.240Z,5.63
2023-03-12T23:59:27.101Z,3.73
